IBE14N FSIA-HAAB
Flight info
| Callsign | IBE14N |
|---|---|
| Flight time | 3h 25m |
| Altitude | 36000 |
| Route | UNBED1B UNBED T154 XABAL DCT MOGUD/N0452F350 UM313 EGLOM/N0451F360 UM313 MAV UQ555 IMKIT IMKIT1A |
| Aircraft | A320/M-SDE3FGHIRWY/LB1 |
Departure
| Time | 2026-05-05 06:30 |
|---|---|
| Airport | Seychelles International Airport (FSIA) |
Arrival
| Time | 2026-05-05 09:55 |
|---|---|
| Airport | Addis Ababa Bole International Airport (HAAB) |
| Time | Latitude | Longitude | Altitude | Speed | Heading |
|---|---|---|---|---|---|
| 2026-05-05 06:24 | -4.66863 | 55.51368 | 25 ft | 0 kts | 125° |
| 2026-05-05 06:24 | -4.67032 | 55.51251 | 22 ft | 0 kts | 125° |
| 2026-05-05 06:29 | -4.67023 | 55.51267 | 21 ft | 9 kts | 52° |
| 2026-05-05 06:29 | -4.66943 | 55.51339 | 22 ft | 17 kts | 39° |
| 2026-05-05 06:29 | -4.66897 | 55.51412 | 23 ft | 12 kts | 116° |
| 2026-05-05 06:29 | -4.66918 | 55.51446 | 23 ft | 20 kts | 123° |
| 2026-05-05 06:30 | -4.67145 | 55.51777 | 23 ft | 91 kts | 125° |
| 2026-05-05 06:30 | -4.67617 | 55.52455 | 22 ft | 145 kts | 124° |
| 2026-05-05 06:30 | -4.68241 | 55.53355 | 368 ft | 160 kts | 126° |
| 2026-05-05 06:30 | -4.68892 | 55.54273 | 965 ft | 163 kts | 126° |
| 2026-05-05 06:31 | -4.69550 | 55.55208 | 1595 ft | 165 kts | 126° |
| 2026-05-05 06:31 | -4.70227 | 55.56173 | 2030 ft | 175 kts | 126° |
| 2026-05-05 06:31 | -4.70945 | 55.57198 | 2365 ft | 189 kts | 126° |
| 2026-05-05 06:31 | -4.71733 | 55.58321 | 2670 ft | 204 kts | 126° |
| 2026-05-05 06:32 | -4.72582 | 55.59531 | 2964 ft | 221 kts | 126° |
| 2026-05-05 06:32 | -4.73363 | 55.60924 | 3332 ft | 238 kts | 103° |
| 2026-05-05 06:32 | -4.73239 | 55.62596 | 3829 ft | 251 kts | 65° |
| 2026-05-05 06:32 | -4.72081 | 55.63923 | 4330 ft | 263 kts | 29° |
| 2026-05-05 06:33 | -4.70291 | 55.64355 | 4845 ft | 273 kts | 353° |
| 2026-05-05 06:33 | -4.68534 | 55.63676 | 5475 ft | 275 kts | 319° |
| 2026-05-05 06:33 | -4.67283 | 55.62224 | 6159 ft | 277 kts | 301° |
| 2026-05-05 06:33 | -4.66329 | 55.60531 | 6837 ft | 280 kts | 296° |
| 2026-05-05 06:34 | -4.65440 | 55.58788 | 7526 ft | 282 kts | 296° |
| 2026-05-05 06:34 | -4.64522 | 55.57071 | 8230 ft | 284 kts | 298° |
| 2026-05-05 06:34 | -4.63526 | 55.55358 | 8939 ft | 286 kts | 300° |
| 2026-05-05 06:34 | -4.62467 | 55.53664 | 9649 ft | 288 kts | 302° |
| 2026-05-05 06:35 | -4.61359 | 55.51977 | 10201 ft | 294 kts | 302° |
| 2026-05-05 06:35 | -4.60181 | 55.50231 | 10485 ft | 310 kts | 303° |
| 2026-05-05 06:35 | -4.58928 | 55.48400 | 10742 ft | 327 kts | 303° |
| 2026-05-05 06:35 | -4.57617 | 55.46479 | 11019 ft | 340 kts | 301° |
| 2026-05-05 06:36 | -4.56463 | 55.44386 | 11552 ft | 345 kts | 297° |
| 2026-05-05 06:36 | -4.55326 | 55.42254 | 12145 ft | 349 kts | 297° |
| 2026-05-05 06:36 | -4.54181 | 55.40096 | 12702 ft | 353 kts | 297° |
| 2026-05-05 06:36 | -4.53028 | 55.37910 | 13242 ft | 356 kts | 297° |
| 2026-05-05 06:37 | -4.51861 | 55.35704 | 13775 ft | 360 kts | 297° |
| 2026-05-05 06:37 | -4.50677 | 55.33475 | 14243 ft | 364 kts | 297° |
| 2026-05-05 06:37 | -4.49486 | 55.31228 | 14717 ft | 367 kts | 297° |
| 2026-05-05 06:37 | -4.48283 | 55.28955 | 15187 ft | 370 kts | 297° |
| 2026-05-05 06:38 | -4.47073 | 55.26667 | 15665 ft | 374 kts | 297° |
| 2026-05-05 06:38 | -4.45850 | 55.24352 | 16116 ft | 377 kts | 297° |
| 2026-05-05 06:38 | -4.44616 | 55.22023 | 16573 ft | 380 kts | 297° |
| 2026-05-05 06:38 | -4.43367 | 55.19672 | 17030 ft | 384 kts | 297° |
| 2026-05-05 06:39 | -4.42108 | 55.17301 | 17483 ft | 387 kts | 297° |
| 2026-05-05 06:39 | -4.40844 | 55.14911 | 17930 ft | 390 kts | 297° |
| 2026-05-05 06:39 | -4.39568 | 55.12497 | 18352 ft | 393 kts | 298° |
| 2026-05-05 06:39 | -4.38049 | 55.10211 | 18750 ft | 397 kts | 309° |
| 2026-05-05 06:40 | -4.36213 | 55.08135 | 19152 ft | 399 kts | 311° |
| 2026-05-05 06:40 | -4.34351 | 55.06062 | 19563 ft | 401 kts | 311° |
| 2026-05-05 06:40 | -4.32480 | 55.03975 | 19976 ft | 404 kts | 311° |
| 2026-05-05 06:40 | -4.30600 | 55.01874 | 20397 ft | 406 kts | 311° |
| 2026-05-05 06:41 | -4.28716 | 54.99762 | 20802 ft | 408 kts | 311° |
| 2026-05-05 06:41 | -4.26841 | 54.97662 | 21202 ft | 410 kts | 311° |
| 2026-05-05 06:41 | -4.24932 | 54.95527 | 21617 ft | 412 kts | 311° |
| 2026-05-05 06:41 | -4.23014 | 54.93386 | 22011 ft | 414 kts | 311° |
| 2026-05-05 06:42 | -4.21083 | 54.91228 | 22399 ft | 417 kts | 311° |
| 2026-05-05 06:42 | -4.19148 | 54.89063 | 22779 ft | 419 kts | 311° |
| 2026-05-05 06:42 | -4.17200 | 54.86883 | 23152 ft | 421 kts | 310° |
| 2026-05-05 06:42 | -4.15244 | 54.84694 | 23512 ft | 423 kts | 310° |
| 2026-05-05 06:43 | -4.13939 | 54.83233 | 23708 ft | 424 kts | 311° |
| 2026-05-05 06:43 | -4.11939 | 54.80999 | 24005 ft | 426 kts | 311° |
| 2026-05-05 06:43 | -4.09980 | 54.78812 | 24297 ft | 428 kts | 311° |
| 2026-05-05 06:43 | -4.07990 | 54.76589 | 24584 ft | 430 kts | 311° |
| 2026-05-05 06:44 | -4.05987 | 54.74350 | 24868 ft | 432 kts | 311° |
| 2026-05-05 06:44 | -4.03982 | 54.72105 | 25150 ft | 433 kts | 311° |
| 2026-05-05 06:44 | -4.01970 | 54.69852 | 25421 ft | 435 kts | 311° |
| 2026-05-05 06:44 | -3.99946 | 54.67590 | 25700 ft | 437 kts | 311° |
| 2026-05-05 06:45 | -3.97912 | 54.65320 | 25962 ft | 438 kts | 311° |
| 2026-05-05 06:45 | -3.95868 | 54.63040 | 26227 ft | 440 kts | 311° |
| 2026-05-05 06:45 | -3.93820 | 54.60756 | 26490 ft | 442 kts | 311° |
| 2026-05-05 06:45 | -3.91764 | 54.58462 | 26751 ft | 443 kts | 311° |
| 2026-05-05 06:46 | -3.89703 | 54.56160 | 27001 ft | 445 kts | 311° |
| 2026-05-05 06:46 | -3.87633 | 54.53846 | 27252 ft | 446 kts | 311° |
| 2026-05-05 06:46 | -3.85557 | 54.51524 | 27498 ft | 448 kts | 311° |
| 2026-05-05 06:46 | -3.83478 | 54.49199 | 27736 ft | 450 kts | 311° |
| 2026-05-05 06:47 | -3.81388 | 54.46861 | 27986 ft | 451 kts | 311° |
| 2026-05-05 06:47 | -3.79291 | 54.44515 | 28228 ft | 452 kts | 311° |
| 2026-05-05 06:47 | -3.77190 | 54.42166 | 28461 ft | 454 kts | 311° |
| 2026-05-05 06:47 | -3.75078 | 54.39813 | 28690 ft | 455 kts | 311° |
| 2026-05-05 06:48 | -3.72957 | 54.37451 | 28900 ft | 457 kts | 311° |
| 2026-05-05 06:48 | -3.70833 | 54.35080 | 29127 ft | 458 kts | 311° |
| 2026-05-05 06:48 | -3.68702 | 54.32701 | 29339 ft | 459 kts | 311° |
| 2026-05-05 06:48 | -3.66567 | 54.30315 | 29552 ft | 461 kts | 311° |
| 2026-05-05 06:49 | -3.64450 | 54.27958 | 29763 ft | 462 kts | 311° |
| 2026-05-05 06:49 | -3.62306 | 54.25562 | 29948 ft | 463 kts | 311° |
| 2026-05-05 06:49 | -3.60155 | 54.23154 | 30117 ft | 465 kts | 311° |
| 2026-05-05 06:49 | -3.57996 | 54.20740 | 30262 ft | 466 kts | 311° |
| 2026-05-05 06:50 | -3.55829 | 54.18321 | 30442 ft | 466 kts | 311° |
| 2026-05-05 06:50 | -3.53661 | 54.15902 | 30677 ft | 466 kts | 311° |
| 2026-05-05 06:50 | -3.51498 | 54.13495 | 30899 ft | 465 kts | 311° |
| 2026-05-05 06:50 | -3.49332 | 54.11087 | 31105 ft | 465 kts | 311° |
| 2026-05-05 06:51 | -3.47172 | 54.08683 | 31304 ft | 465 kts | 311° |
| 2026-05-05 06:51 | -3.45010 | 54.06271 | 31522 ft | 465 kts | 311° |
| 2026-05-05 06:51 | -3.42854 | 54.03859 | 31738 ft | 465 kts | 311° |
| 2026-05-05 06:51 | -3.40695 | 54.01449 | 31937 ft | 465 kts | 311° |
| 2026-05-05 06:52 | -3.38532 | 53.99036 | 32141 ft | 466 kts | 311° |
| 2026-05-05 06:52 | -3.36369 | 53.96624 | 32347 ft | 466 kts | 311° |
| 2026-05-05 06:52 | -3.34203 | 53.94212 | 32552 ft | 466 kts | 312° |
| 2026-05-05 06:52 | -3.32041 | 53.91801 | 32756 ft | 466 kts | 312° |
| 2026-05-05 06:53 | -3.29876 | 53.89386 | 32970 ft | 466 kts | 312° |
| 2026-05-05 06:53 | -3.27712 | 53.86973 | 33194 ft | 465 kts | 312° |
| 2026-05-05 06:53 | -3.25551 | 53.84565 | 33415 ft | 465 kts | 312° |
| 2026-05-05 06:53 | -3.23388 | 53.82156 | 33644 ft | 465 kts | 312° |
| 2026-05-05 06:54 | -3.21256 | 53.79783 | 33861 ft | 465 kts | 312° |
| 2026-05-05 06:54 | -3.19097 | 53.77378 | 34063 ft | 465 kts | 312° |
| 2026-05-05 06:54 | -3.16936 | 53.74971 | 34244 ft | 464 kts | 312° |
| 2026-05-05 06:54 | -3.14777 | 53.72568 | 34412 ft | 464 kts | 312° |
| 2026-05-05 06:55 | -3.12618 | 53.70166 | 34586 ft | 464 kts | 312° |
| 2026-05-05 06:55 | -3.10459 | 53.67764 | 34761 ft | 464 kts | 312° |
| 2026-05-05 06:55 | -3.08302 | 53.65362 | 34926 ft | 464 kts | 312° |
| 2026-05-05 06:55 | -3.06146 | 53.62960 | 35088 ft | 464 kts | 311° |
| 2026-05-05 06:56 | -3.04185 | 53.60402 | 35253 ft | 464 kts | 302° |
| 2026-05-05 06:56 | -3.02487 | 53.57654 | 35402 ft | 464 kts | 302° |
| 2026-05-05 06:56 | -3.00791 | 53.54906 | 35541 ft | 464 kts | 302° |
| 2026-05-05 06:56 | -2.99092 | 53.52162 | 35682 ft | 464 kts | 302° |
| 2026-05-05 06:57 | -2.97391 | 53.49418 | 35838 ft | 464 kts | 302° |
| 2026-05-05 06:57 | -2.93992 | 53.43940 | 35943 ft | 462 kts | 302° |
| 2026-05-05 06:58 | -2.90597 | 53.38480 | 35946 ft | 462 kts | 302° |
| 2026-05-05 06:58 | -2.87214 | 53.33013 | 35943 ft | 462 kts | 302° |
| 2026-05-05 06:59 | -2.83833 | 53.27546 | 35942 ft | 462 kts | 302° |
| 2026-05-05 06:59 | -2.80447 | 53.22083 | 35944 ft | 462 kts | 302° |
| 2026-05-05 07:00 | -2.77080 | 53.16657 | 35945 ft | 462 kts | 302° |
| 2026-05-05 07:00 | -2.73691 | 53.11192 | 35948 ft | 462 kts | 302° |
| 2026-05-05 07:01 | -2.70309 | 53.05734 | 35947 ft | 462 kts | 302° |
| 2026-05-05 07:01 | -2.66926 | 53.00270 | 35946 ft | 462 kts | 302° |
| 2026-05-05 07:02 | -2.63534 | 52.94819 | 35941 ft | 462 kts | 302° |
| 2026-05-05 07:02 | -2.60146 | 52.89368 | 35942 ft | 462 kts | 302° |
| 2026-05-05 07:03 | -2.56763 | 52.83909 | 35948 ft | 461 kts | 302° |
| 2026-05-05 07:03 | -2.53424 | 52.78428 | 35947 ft | 461 kts | 301° |
| 2026-05-05 07:04 | -2.50102 | 52.72929 | 35950 ft | 461 kts | 301° |
| 2026-05-05 07:04 | -2.46794 | 52.67482 | 35950 ft | 461 kts | 301° |
| 2026-05-05 07:05 | -2.43461 | 52.62000 | 35949 ft | 461 kts | 301° |
| 2026-05-05 07:05 | -2.40130 | 52.56521 | 35951 ft | 461 kts | 301° |
| 2026-05-05 07:06 | -2.36788 | 52.51044 | 35951 ft | 461 kts | 302° |
| 2026-05-05 07:06 | -2.33450 | 52.45574 | 35947 ft | 461 kts | 301° |
| 2026-05-05 07:07 | -2.30118 | 52.40096 | 35946 ft | 461 kts | 301° |
| 2026-05-05 07:07 | -2.26797 | 52.34613 | 35950 ft | 461 kts | 301° |
| 2026-05-05 07:08 | -2.23469 | 52.29135 | 35955 ft | 461 kts | 302° |
| 2026-05-05 07:08 | -2.20128 | 52.23666 | 35958 ft | 461 kts | 302° |
| 2026-05-05 07:09 | -2.16794 | 52.18201 | 35955 ft | 461 kts | 301° |
| 2026-05-05 07:09 | -2.13463 | 52.12721 | 35952 ft | 460 kts | 301° |
| 2026-05-05 07:10 | -2.10135 | 52.07254 | 35954 ft | 460 kts | 301° |
| 2026-05-05 07:10 | -2.06832 | 52.01827 | 35951 ft | 460 kts | 301° |
| 2026-05-05 07:11 | -2.03505 | 51.96361 | 35943 ft | 460 kts | 301° |
| 2026-05-05 07:11 | -2.00157 | 51.90859 | 35947 ft | 460 kts | 301° |
| 2026-05-05 07:12 | -1.96848 | 51.85437 | 35946 ft | 460 kts | 302° |
| 2026-05-05 07:12 | -1.93519 | 51.79976 | 35946 ft | 460 kts | 301° |
| 2026-05-05 07:13 | -1.90196 | 51.74511 | 35950 ft | 460 kts | 301° |
| 2026-05-05 07:13 | -1.86862 | 51.69047 | 35952 ft | 460 kts | 302° |
| 2026-05-05 07:14 | -1.83530 | 51.63582 | 35952 ft | 460 kts | 302° |
| 2026-05-05 07:14 | -1.80196 | 51.58119 | 35948 ft | 460 kts | 302° |
| 2026-05-05 07:15 | -1.76869 | 51.52656 | 35943 ft | 460 kts | 302° |
| 2026-05-05 07:15 | -1.73543 | 51.47189 | 35943 ft | 460 kts | 302° |
| 2026-05-05 07:16 | -1.70208 | 51.41730 | 35934 ft | 460 kts | 302° |
| 2026-05-05 07:16 | -1.66869 | 51.36274 | 35934 ft | 460 kts | 302° |
| 2026-05-05 07:17 | -1.63540 | 51.30806 | 35935 ft | 461 kts | 302° |
| 2026-05-05 07:17 | -1.60211 | 51.25337 | 35935 ft | 460 kts | 302° |
| 2026-05-05 07:18 | -1.56876 | 51.19871 | 35941 ft | 461 kts | 302° |
| 2026-05-05 07:18 | -1.53539 | 51.14407 | 35937 ft | 460 kts | 302° |
| 2026-05-05 07:19 | -1.50209 | 51.08940 | 35938 ft | 460 kts | 302° |
| 2026-05-05 07:19 | -1.46883 | 51.03471 | 35933 ft | 460 kts | 302° |
| 2026-05-05 07:20 | -1.43549 | 50.98010 | 35932 ft | 460 kts | 302° |
| 2026-05-05 07:20 | -1.40232 | 50.92587 | 35925 ft | 460 kts | 302° |
| 2026-05-05 07:21 | -1.36905 | 50.87125 | 35917 ft | 460 kts | 302° |
| 2026-05-05 07:21 | -1.33567 | 50.81661 | 35917 ft | 461 kts | 302° |
| 2026-05-05 07:22 | -1.30228 | 50.76191 | 35918 ft | 461 kts | 302° |
| 2026-05-05 07:22 | -1.26898 | 50.70725 | 35922 ft | 461 kts | 302° |
| 2026-05-05 07:23 | -1.23566 | 50.65257 | 35920 ft | 461 kts | 302° |
| 2026-05-05 07:23 | -1.20231 | 50.59788 | 35918 ft | 461 kts | 302° |
| 2026-05-05 07:24 | -1.16897 | 50.54319 | 35917 ft | 461 kts | 302° |
| 2026-05-05 07:24 | -1.13557 | 50.48854 | 35920 ft | 461 kts | 302° |
| 2026-05-05 07:25 | -1.10213 | 50.43392 | 35924 ft | 461 kts | 302° |
| 2026-05-05 07:25 | -1.06870 | 50.37917 | 35934 ft | 461 kts | 302° |
| 2026-05-05 07:26 | -1.03535 | 50.32444 | 35933 ft | 461 kts | 302° |
| 2026-05-05 07:26 | -1.00203 | 50.26967 | 35937 ft | 461 kts | 302° |
| 2026-05-05 07:27 | -0.96875 | 50.21528 | 35939 ft | 461 kts | 303° |
| 2026-05-05 07:27 | -0.93533 | 50.16067 | 35932 ft | 461 kts | 302° |
| 2026-05-05 07:28 | -0.90195 | 50.10600 | 35929 ft | 461 kts | 302° |
| 2026-05-05 07:28 | -0.86857 | 50.05134 | 35934 ft | 461 kts | 303° |
| 2026-05-05 07:29 | -0.83524 | 49.99677 | 35931 ft | 460 kts | 302° |
| 2026-05-05 07:29 | -0.80198 | 49.94210 | 35927 ft | 460 kts | 302° |
| 2026-05-05 07:30 | -0.76867 | 49.88751 | 35925 ft | 460 kts | 303° |
| 2026-05-05 07:30 | -0.71863 | 49.80578 | 35938 ft | 460 kts | 303° |
| 2026-05-05 07:31 | -0.68531 | 49.75122 | 35940 ft | 459 kts | 303° |
| 2026-05-05 07:31 | -0.65207 | 49.69675 | 35936 ft | 459 kts | 303° |
| 2026-05-05 07:32 | -0.61885 | 49.64234 | 35935 ft | 459 kts | 303° |
| 2026-05-05 07:32 | -0.58580 | 49.58829 | 35930 ft | 459 kts | 303° |
| 2026-05-05 07:33 | -0.55264 | 49.53390 | 35929 ft | 458 kts | 303° |
| 2026-05-05 07:33 | -0.51939 | 49.47957 | 35933 ft | 458 kts | 303° |
| 2026-05-05 07:34 | -0.48618 | 49.42518 | 35933 ft | 458 kts | 303° |
| 2026-05-05 07:34 | -0.45838 | 49.37963 | 35931 ft | 458 kts | 303° |
| 2026-05-05 07:35 | -0.42548 | 49.32563 | 35932 ft | 458 kts | 303° |
| 2026-05-05 07:35 | -0.39232 | 49.27134 | 35935 ft | 458 kts | 303° |
| 2026-05-05 07:36 | -0.35907 | 49.21701 | 35932 ft | 458 kts | 303° |
| 2026-05-05 07:36 | -0.32592 | 49.16275 | 35929 ft | 458 kts | 303° |
| 2026-05-05 07:37 | -0.29278 | 49.10846 | 35927 ft | 458 kts | 303° |
| 2026-05-05 07:37 | -0.25959 | 49.05422 | 35929 ft | 458 kts | 303° |
| 2026-05-05 07:38 | -0.22640 | 48.99995 | 35933 ft | 458 kts | 303° |
| 2026-05-05 07:38 | -0.19329 | 48.94558 | 35935 ft | 457 kts | 303° |
| 2026-05-05 07:39 | -0.16024 | 48.89129 | 35931 ft | 457 kts | 303° |
| 2026-05-05 07:39 | -0.12727 | 48.83744 | 35937 ft | 457 kts | 303° |
| 2026-05-05 07:40 | -0.09405 | 48.78329 | 35934 ft | 457 kts | 303° |
| 2026-05-05 07:40 | -0.06096 | 48.72910 | 35928 ft | 457 kts | 303° |
| 2026-05-05 07:41 | -0.02785 | 48.67481 | 35931 ft | 458 kts | 303° |
| 2026-05-05 07:41 | 0.00533 | 48.62049 | 35933 ft | 458 kts | 303° |
| 2026-05-05 07:42 | 0.03850 | 48.56624 | 35934 ft | 457 kts | 303° |
| 2026-05-05 07:42 | 0.07168 | 48.51201 | 35932 ft | 457 kts | 303° |
| 2026-05-05 07:43 | 0.10478 | 48.45777 | 35928 ft | 458 kts | 303° |
| 2026-05-05 07:43 | 0.13789 | 48.40343 | 35935 ft | 457 kts | 303° |
| 2026-05-05 07:44 | 0.17098 | 48.34918 | 35933 ft | 457 kts | 303° |
| 2026-05-05 07:44 | 0.20401 | 48.29536 | 35933 ft | 458 kts | 303° |
| 2026-05-05 07:45 | 0.23719 | 48.24101 | 35939 ft | 457 kts | 303° |
| 2026-05-05 07:45 | 0.27027 | 48.18684 | 35937 ft | 457 kts | 303° |
| 2026-05-05 07:46 | 0.30337 | 48.13267 | 35939 ft | 457 kts | 303° |
| 2026-05-05 07:46 | 0.33637 | 48.07849 | 35946 ft | 456 kts | 303° |
| 2026-05-05 07:47 | 0.36942 | 48.02437 | 35948 ft | 456 kts | 303° |
| 2026-05-05 07:47 | 0.40247 | 47.97039 | 35946 ft | 454 kts | 303° |
| 2026-05-05 07:48 | 0.43517 | 47.91692 | 35941 ft | 453 kts | 303° |
| 2026-05-05 07:48 | 0.46795 | 47.86320 | 35945 ft | 453 kts | 303° |
| 2026-05-05 07:49 | 0.50074 | 47.80954 | 35945 ft | 452 kts | 303° |
| 2026-05-05 07:49 | 0.53340 | 47.75598 | 35945 ft | 451 kts | 303° |
| 2026-05-05 07:50 | 0.56601 | 47.70258 | 35945 ft | 450 kts | 303° |
| 2026-05-05 07:50 | 0.59865 | 47.64925 | 35946 ft | 449 kts | 303° |
| 2026-05-05 07:51 | 0.63119 | 47.59603 | 35951 ft | 448 kts | 303° |
| 2026-05-05 07:51 | 0.66363 | 47.54292 | 35950 ft | 448 kts | 302° |
| 2026-05-05 07:52 | 0.69599 | 47.48985 | 35950 ft | 447 kts | 302° |
| 2026-05-05 07:52 | 0.72832 | 47.43690 | 35954 ft | 446 kts | 302° |
| 2026-05-05 07:53 | 0.76054 | 47.38393 | 35951 ft | 446 kts | 302° |
| 2026-05-05 07:53 | 0.79236 | 47.33073 | 35953 ft | 446 kts | 302° |
| 2026-05-05 07:54 | 0.82399 | 47.27750 | 35954 ft | 446 kts | 302° |
| 2026-05-05 07:54 | 0.85545 | 47.22464 | 35950 ft | 445 kts | 302° |
| 2026-05-05 07:55 | 0.88718 | 47.17155 | 35946 ft | 445 kts | 302° |
| 2026-05-05 07:55 | 0.91888 | 47.11838 | 35949 ft | 445 kts | 302° |
| 2026-05-05 07:56 | 0.95062 | 47.06518 | 35951 ft | 446 kts | 302° |
| 2026-05-05 07:56 | 0.98243 | 47.01194 | 35943 ft | 447 kts | 302° |
| 2026-05-05 07:57 | 1.01427 | 46.95860 | 35944 ft | 447 kts | 302° |
| 2026-05-05 07:57 | 1.04613 | 46.90519 | 35945 ft | 448 kts | 302° |
| 2026-05-05 07:58 | 1.07801 | 46.85174 | 35946 ft | 448 kts | 302° |
| 2026-05-05 07:58 | 1.10991 | 46.79817 | 35946 ft | 448 kts | 302° |
| 2026-05-05 07:59 | 1.14181 | 46.74465 | 35950 ft | 448 kts | 302° |
| 2026-05-05 07:59 | 1.17379 | 46.69106 | 35959 ft | 449 kts | 302° |
| 2026-05-05 08:00 | 1.20571 | 46.63757 | 35962 ft | 448 kts | 302° |
| 2026-05-05 08:00 | 1.23758 | 46.58410 | 35960 ft | 448 kts | 302° |
| 2026-05-05 08:01 | 1.26952 | 46.53071 | 35961 ft | 448 kts | 302° |
| 2026-05-05 08:01 | 1.30140 | 46.47723 | 35956 ft | 448 kts | 302° |
| 2026-05-05 08:02 | 1.33322 | 46.42372 | 35961 ft | 448 kts | 302° |
| 2026-05-05 08:02 | 1.36486 | 46.37063 | 35966 ft | 448 kts | 302° |
| 2026-05-05 08:03 | 1.39670 | 46.31717 | 35965 ft | 448 kts | 302° |
| 2026-05-05 08:03 | 1.42861 | 46.26369 | 35961 ft | 448 kts | 301° |
| 2026-05-05 08:04 | 1.46046 | 46.21023 | 35960 ft | 448 kts | 301° |
| 2026-05-05 08:04 | 1.49239 | 46.15681 | 35957 ft | 447 kts | 301° |
| 2026-05-05 08:05 | 1.52432 | 46.10334 | 35958 ft | 448 kts | 301° |
| 2026-05-05 08:05 | 1.55613 | 46.04990 | 35958 ft | 447 kts | 301° |
| 2026-05-05 08:06 | 1.58797 | 45.99643 | 35958 ft | 448 kts | 301° |
| 2026-05-05 08:06 | 1.61981 | 45.94291 | 35960 ft | 448 kts | 301° |
| 2026-05-05 08:07 | 1.65168 | 45.88943 | 35955 ft | 448 kts | 301° |
| 2026-05-05 08:07 | 1.68358 | 45.83590 | 35954 ft | 448 kts | 301° |
| 2026-05-05 08:08 | 1.71546 | 45.78231 | 35953 ft | 448 kts | 301° |
| 2026-05-05 08:08 | 1.74716 | 45.72908 | 35954 ft | 449 kts | 301° |
| 2026-05-05 08:09 | 1.77906 | 45.67550 | 35958 ft | 449 kts | 301° |
| 2026-05-05 08:09 | 1.81103 | 45.62188 | 35961 ft | 449 kts | 302° |
| 2026-05-05 08:10 | 1.84302 | 45.56825 | 35964 ft | 449 kts | 302° |
| 2026-05-05 08:10 | 1.87495 | 45.51458 | 35968 ft | 449 kts | 302° |
| 2026-05-05 08:11 | 1.90697 | 45.46088 | 35964 ft | 450 kts | 302° |
| 2026-05-05 08:11 | 1.93896 | 45.40713 | 35961 ft | 450 kts | 302° |
| 2026-05-05 08:12 | 1.97093 | 45.35339 | 35956 ft | 450 kts | 301° |
| 2026-05-05 08:12 | 2.00295 | 45.29960 | 35958 ft | 450 kts | 302° |
| 2026-05-05 08:13 | 2.03449 | 45.24550 | 35958 ft | 451 kts | 301° |
| 2026-05-05 08:13 | 2.06514 | 45.19079 | 35958 ft | 451 kts | 300° |
| 2026-05-05 08:14 | 2.09574 | 45.13598 | 35958 ft | 451 kts | 301° |
| 2026-05-05 08:14 | 2.12635 | 45.08174 | 35956 ft | 451 kts | 301° |
| 2026-05-05 08:15 | 2.15730 | 45.02718 | 35960 ft | 451 kts | 301° |
| 2026-05-05 08:15 | 2.18828 | 44.97261 | 35964 ft | 451 kts | 301° |
| 2026-05-05 08:16 | 2.21922 | 44.91796 | 35967 ft | 452 kts | 301° |
| 2026-05-05 08:16 | 2.25010 | 44.86327 | 35963 ft | 451 kts | 301° |
| 2026-05-05 08:17 | 2.28098 | 44.80862 | 35963 ft | 451 kts | 301° |
| 2026-05-05 08:17 | 2.31195 | 44.75396 | 35958 ft | 452 kts | 301° |
| 2026-05-05 08:18 | 2.34281 | 44.69924 | 35964 ft | 452 kts | 301° |
| 2026-05-05 08:18 | 2.37368 | 44.64456 | 35965 ft | 451 kts | 301° |
| 2026-05-05 08:19 | 2.40461 | 44.58994 | 35964 ft | 451 kts | 301° |
| 2026-05-05 08:19 | 2.43555 | 44.53537 | 35962 ft | 451 kts | 301° |
| 2026-05-05 08:20 | 2.46629 | 44.48116 | 35964 ft | 451 kts | 301° |
| 2026-05-05 08:20 | 2.49706 | 44.42658 | 35962 ft | 450 kts | 301° |
| 2026-05-05 08:21 | 2.52780 | 44.37206 | 35966 ft | 450 kts | 301° |
| 2026-05-05 08:21 | 2.55862 | 44.31763 | 35965 ft | 449 kts | 301° |
| 2026-05-05 08:22 | 2.58928 | 44.26325 | 35964 ft | 449 kts | 301° |
| 2026-05-05 08:22 | 2.61990 | 44.20898 | 35965 ft | 448 kts | 301° |
| 2026-05-05 08:23 | 2.65049 | 44.15470 | 35963 ft | 448 kts | 301° |
| 2026-05-05 08:23 | 2.68114 | 44.10055 | 35963 ft | 447 kts | 301° |
| 2026-05-05 08:24 | 2.71178 | 44.04642 | 35962 ft | 447 kts | 301° |
| 2026-05-05 08:24 | 2.74230 | 43.99232 | 35967 ft | 447 kts | 301° |
| 2026-05-05 08:25 | 2.77280 | 43.93825 | 35970 ft | 446 kts | 301° |
| 2026-05-05 08:25 | 2.80332 | 43.88423 | 35969 ft | 446 kts | 301° |
| 2026-05-05 08:26 | 2.83380 | 43.83026 | 35968 ft | 446 kts | 301° |
| 2026-05-05 08:26 | 2.85908 | 43.78541 | 35974 ft | 445 kts | 301° |
| 2026-05-05 08:27 | 2.88951 | 43.73146 | 35977 ft | 445 kts | 301° |
| 2026-05-05 08:27 | 2.92493 | 43.66878 | 35980 ft | 445 kts | 301° |
| 2026-05-05 08:28 | 2.95536 | 43.61488 | 35984 ft | 445 kts | 301° |
| 2026-05-05 08:28 | 2.98084 | 43.56969 | 35988 ft | 445 kts | 301° |
| 2026-05-05 08:29 | 3.01101 | 43.51612 | 35988 ft | 445 kts | 301° |
| 2026-05-05 08:30 | 3.05684 | 43.43478 | 35997 ft | 445 kts | 301° |
| 2026-05-05 08:30 | 3.08712 | 43.38116 | 35995 ft | 446 kts | 301° |
| 2026-05-05 08:31 | 3.11757 | 43.32716 | 35995 ft | 446 kts | 301° |
| 2026-05-05 08:31 | 3.14802 | 43.27318 | 35993 ft | 446 kts | 301° |
| 2026-05-05 08:32 | 3.17850 | 43.21907 | 35996 ft | 446 kts | 301° |
| 2026-05-05 08:32 | 3.20890 | 43.16495 | 35998 ft | 446 kts | 301° |
| 2026-05-05 08:33 | 3.23931 | 43.11091 | 36002 ft | 445 kts | 301° |
| 2026-05-05 08:33 | 3.26975 | 43.05700 | 36002 ft | 445 kts | 301° |
| 2026-05-05 08:34 | 3.30021 | 43.00300 | 35993 ft | 446 kts | 301° |
| 2026-05-05 08:34 | 3.33060 | 42.94899 | 35994 ft | 445 kts | 301° |
| 2026-05-05 08:35 | 3.36092 | 42.89496 | 35991 ft | 445 kts | 301° |
| 2026-05-05 08:35 | 3.39107 | 42.84137 | 35993 ft | 445 kts | 301° |
| 2026-05-05 08:36 | 3.42150 | 42.78746 | 35994 ft | 445 kts | 301° |
| 2026-05-05 08:36 | 3.45184 | 42.73354 | 35989 ft | 445 kts | 301° |
| 2026-05-05 08:37 | 3.48218 | 42.67963 | 35991 ft | 445 kts | 301° |
| 2026-05-05 08:37 | 3.51249 | 42.62570 | 35995 ft | 444 kts | 301° |
| 2026-05-05 08:38 | 3.54279 | 42.57185 | 35991 ft | 444 kts | 301° |
| 2026-05-05 08:38 | 3.57310 | 42.51797 | 35993 ft | 444 kts | 301° |
| 2026-05-05 08:39 | 3.60337 | 42.46418 | 35982 ft | 444 kts | 301° |
| 2026-05-05 08:39 | 3.63368 | 42.41035 | 35977 ft | 444 kts | 301° |
| 2026-05-05 08:40 | 3.66390 | 42.35650 | 35978 ft | 444 kts | 301° |
| 2026-05-05 08:40 | 3.69419 | 42.30265 | 35977 ft | 444 kts | 301° |
| 2026-05-05 08:41 | 3.72426 | 42.24916 | 35979 ft | 444 kts | 301° |
| 2026-05-05 08:41 | 3.75451 | 42.19520 | 35976 ft | 445 kts | 301° |
| 2026-05-05 08:42 | 3.78484 | 42.14119 | 35980 ft | 445 kts | 301° |
| 2026-05-05 08:42 | 3.81519 | 42.08720 | 35976 ft | 445 kts | 301° |
| 2026-05-05 08:43 | 3.84559 | 42.03313 | 35982 ft | 446 kts | 301° |
| 2026-05-05 08:43 | 3.87597 | 41.97904 | 35987 ft | 445 kts | 301° |
| 2026-05-05 08:44 | 3.90633 | 41.92485 | 35988 ft | 446 kts | 301° |
| 2026-05-05 08:44 | 3.93668 | 41.87070 | 35985 ft | 446 kts | 302° |
| 2026-05-05 08:45 | 3.97128 | 41.81933 | 35982 ft | 445 kts | 306° |
| 2026-05-05 08:45 | 4.00669 | 41.76843 | 35983 ft | 446 kts | 306° |
| 2026-05-05 08:46 | 4.04217 | 41.71752 | 35982 ft | 446 kts | 306° |
| 2026-05-05 08:46 | 4.07764 | 41.66650 | 35981 ft | 447 kts | 306° |
| 2026-05-05 08:47 | 4.11306 | 41.61531 | 35987 ft | 447 kts | 306° |
| 2026-05-05 08:47 | 4.14851 | 41.56413 | 35988 ft | 447 kts | 306° |
| 2026-05-05 08:48 | 4.18374 | 41.51332 | 35991 ft | 447 kts | 306° |
| 2026-05-05 08:48 | 4.21919 | 41.46218 | 35995 ft | 447 kts | 306° |
| 2026-05-05 08:49 | 4.25463 | 41.41110 | 36002 ft | 446 kts | 306° |
| 2026-05-05 08:49 | 4.29004 | 41.35999 | 36005 ft | 446 kts | 306° |
| 2026-05-05 08:50 | 4.32543 | 41.30887 | 36002 ft | 446 kts | 306° |
| 2026-05-05 08:50 | 4.36080 | 41.25782 | 36008 ft | 446 kts | 306° |
| 2026-05-05 08:51 | 4.39618 | 41.20672 | 36014 ft | 446 kts | 306° |
| 2026-05-05 08:51 | 4.43156 | 41.15568 | 36014 ft | 446 kts | 306° |
| 2026-05-05 08:52 | 4.46691 | 41.10459 | 36020 ft | 446 kts | 306° |
| 2026-05-05 08:52 | 4.50231 | 41.05341 | 36022 ft | 446 kts | 306° |
| 2026-05-05 08:53 | 4.53753 | 41.00268 | 36020 ft | 447 kts | 306° |
| 2026-05-05 08:53 | 4.57295 | 40.95148 | 36015 ft | 447 kts | 306° |
| 2026-05-05 08:54 | 4.60834 | 40.90022 | 36016 ft | 447 kts | 306° |
| 2026-05-05 08:54 | 4.64382 | 40.84899 | 36014 ft | 448 kts | 306° |
| 2026-05-05 08:55 | 4.67930 | 40.79769 | 36014 ft | 448 kts | 306° |
| 2026-05-05 08:55 | 4.71474 | 40.74635 | 36018 ft | 448 kts | 306° |
| 2026-05-05 08:56 | 4.75023 | 40.69493 | 36015 ft | 448 kts | 306° |
| 2026-05-05 08:56 | 4.78575 | 40.64357 | 36019 ft | 449 kts | 306° |
| 2026-05-05 08:57 | 4.82134 | 40.59218 | 36023 ft | 449 kts | 306° |
| 2026-05-05 08:57 | 4.85688 | 40.54073 | 36023 ft | 449 kts | 306° |
| 2026-05-05 08:58 | 4.89241 | 40.48926 | 36025 ft | 449 kts | 306° |
| 2026-05-05 08:58 | 4.92771 | 40.43811 | 36023 ft | 449 kts | 306° |
| 2026-05-05 08:59 | 4.96331 | 40.38666 | 36022 ft | 449 kts | 306° |
| 2026-05-05 08:59 | 4.99893 | 40.33515 | 36024 ft | 450 kts | 306° |
| 2026-05-05 09:00 | 5.03456 | 40.28361 | 36031 ft | 450 kts | 306° |
| 2026-05-05 09:00 | 5.07018 | 40.23205 | 36029 ft | 450 kts | 306° |
| 2026-05-05 09:01 | 5.10586 | 40.18047 | 36033 ft | 450 kts | 306° |
| 2026-05-05 09:01 | 5.14144 | 40.12878 | 36031 ft | 450 kts | 306° |
| 2026-05-05 09:02 | 5.17712 | 40.07714 | 36029 ft | 450 kts | 306° |
| 2026-05-05 09:02 | 5.21284 | 40.02547 | 36038 ft | 451 kts | 306° |
| 2026-05-05 09:03 | 5.24850 | 39.97373 | 36041 ft | 451 kts | 306° |
| 2026-05-05 09:03 | 5.28415 | 39.92196 | 36036 ft | 451 kts | 306° |
| 2026-05-05 09:04 | 5.31957 | 39.87051 | 36035 ft | 451 kts | 306° |
| 2026-05-05 09:04 | 5.35534 | 39.81876 | 36030 ft | 451 kts | 306° |
| 2026-05-05 09:05 | 5.39114 | 39.76695 | 36031 ft | 452 kts | 306° |
| 2026-05-05 09:05 | 5.42684 | 39.71507 | 36032 ft | 452 kts | 306° |
| 2026-05-05 09:06 | 5.46259 | 39.66311 | 36045 ft | 452 kts | 306° |
| 2026-05-05 09:06 | 5.49839 | 39.61123 | 36057 ft | 452 kts | 306° |
| 2026-05-05 09:07 | 5.53415 | 39.55936 | 36050 ft | 452 kts | 306° |
| 2026-05-05 09:07 | 5.56999 | 39.50746 | 36050 ft | 452 kts | 306° |
| 2026-05-05 09:08 | 5.60576 | 39.45556 | 36048 ft | 452 kts | 306° |
| 2026-05-05 09:08 | 5.64496 | 39.40658 | 36044 ft | 450 kts | 320° |
| 2026-05-05 09:09 | 5.69722 | 39.37302 | 36037 ft | 447 kts | 339° |
| 2026-05-05 09:09 | 5.75563 | 39.35308 | 36045 ft | 446 kts | 343° |
| 2026-05-05 09:10 | 5.81465 | 39.33342 | 36049 ft | 447 kts | 342° |
| 2026-05-05 09:10 | 5.87372 | 39.31363 | 36049 ft | 448 kts | 342° |
| 2026-05-05 09:11 | 5.93283 | 39.29392 | 36066 ft | 448 kts | 343° |
| 2026-05-05 09:11 | 5.99193 | 39.27427 | 36067 ft | 448 kts | 342° |
| 2026-05-05 09:12 | 6.05110 | 39.25466 | 36059 ft | 448 kts | 342° |
| 2026-05-05 09:12 | 6.11027 | 39.23491 | 36065 ft | 448 kts | 342° |
| 2026-05-05 09:13 | 6.16944 | 39.21503 | 36058 ft | 448 kts | 342° |
| 2026-05-05 09:13 | 6.22869 | 39.19524 | 36072 ft | 448 kts | 342° |
| 2026-05-05 09:14 | 6.28789 | 39.17548 | 36070 ft | 449 kts | 342° |
| 2026-05-05 09:14 | 6.34681 | 39.15589 | 36078 ft | 449 kts | 342° |
| 2026-05-05 09:15 | 6.40651 | 39.13600 | 36089 ft | 449 kts | 342° |
| 2026-05-05 09:15 | 6.46583 | 39.11608 | 36096 ft | 450 kts | 342° |
| 2026-05-05 09:16 | 6.52485 | 39.09625 | 36106 ft | 450 kts | 342° |
| 2026-05-05 09:16 | 6.58433 | 39.07644 | 36109 ft | 450 kts | 342° |
| 2026-05-05 09:17 | 6.64380 | 39.05670 | 36118 ft | 450 kts | 342° |
| 2026-05-05 09:17 | 6.70333 | 39.03676 | 36114 ft | 450 kts | 342° |
| 2026-05-05 09:18 | 6.76279 | 39.01674 | 36115 ft | 451 kts | 342° |
| 2026-05-05 09:18 | 6.82233 | 38.99679 | 36123 ft | 451 kts | 342° |
| 2026-05-05 09:19 | 6.88191 | 38.97686 | 36122 ft | 451 kts | 342° |
| 2026-05-05 09:19 | 6.94150 | 38.95692 | 36129 ft | 451 kts | 342° |
| 2026-05-05 09:20 | 7.00103 | 38.93705 | 36129 ft | 450 kts | 342° |
| 2026-05-05 09:20 | 7.05039 | 38.92052 | 36140 ft | 450 kts | 342° |
| 2026-05-05 09:21 | 7.10976 | 38.90060 | 36142 ft | 449 kts | 341° |
| 2026-05-05 09:21 | 7.16900 | 38.88068 | 36134 ft | 449 kts | 341° |
| 2026-05-05 09:22 | 7.22823 | 38.86087 | 36137 ft | 448 kts | 341° |
| 2026-05-05 09:22 | 7.28697 | 38.84120 | 36137 ft | 448 kts | 341° |
| 2026-05-05 09:23 | 7.34598 | 38.82136 | 36127 ft | 447 kts | 341° |
| 2026-05-05 09:23 | 7.40498 | 38.80155 | 36126 ft | 446 kts | 341° |
| 2026-05-05 09:24 | 7.46397 | 38.78177 | 35981 ft | 449 kts | 341° |
| 2026-05-05 09:24 | 7.49361 | 38.77184 | 35736 ft | 449 kts | 341° |
| 2026-05-05 09:24 | 7.52332 | 38.76189 | 35501 ft | 449 kts | 341° |
| 2026-05-05 09:24 | 7.55288 | 38.75198 | 35267 ft | 448 kts | 341° |
| 2026-05-05 09:25 | 7.58239 | 38.74206 | 35027 ft | 446 kts | 341° |
| 2026-05-05 09:25 | 7.61184 | 38.73214 | 34795 ft | 445 kts | 341° |
| 2026-05-05 09:25 | 7.64117 | 38.72229 | 34567 ft | 444 kts | 341° |
| 2026-05-05 09:25 | 7.67046 | 38.71245 | 34337 ft | 443 kts | 341° |
| 2026-05-05 09:26 | 7.69963 | 38.70268 | 34114 ft | 442 kts | 341° |
| 2026-05-05 09:26 | 7.72879 | 38.69293 | 33857 ft | 441 kts | 341° |
| 2026-05-05 09:26 | 7.75781 | 38.68321 | 33609 ft | 439 kts | 341° |
| 2026-05-05 09:26 | 7.78677 | 38.67350 | 33347 ft | 437 kts | 341° |
| 2026-05-05 09:27 | 7.81556 | 38.66382 | 33090 ft | 436 kts | 341° |
| 2026-05-05 09:27 | 7.84428 | 38.65414 | 32850 ft | 434 kts | 341° |
| 2026-05-05 09:27 | 7.87284 | 38.64451 | 32604 ft | 432 kts | 342° |
| 2026-05-05 09:27 | 7.90130 | 38.63492 | 32359 ft | 430 kts | 342° |
| 2026-05-05 09:28 | 7.92928 | 38.62549 | 32123 ft | 429 kts | 342° |
| 2026-05-05 09:28 | 7.95755 | 38.61597 | 31886 ft | 428 kts | 342° |
| 2026-05-05 09:28 | 7.98617 | 38.60804 | 31653 ft | 426 kts | 350° |
| 2026-05-05 09:28 | 8.01555 | 38.60494 | 31417 ft | 424 kts | 360° |
| 2026-05-05 09:29 | 8.04485 | 38.60670 | 31189 ft | 422 kts | 9° |
| 2026-05-05 09:29 | 8.07338 | 38.61317 | 30957 ft | 419 kts | 18° |
| 2026-05-05 09:29 | 8.10121 | 38.62180 | 30725 ft | 418 kts | 17° |
| 2026-05-05 09:29 | 8.12898 | 38.63035 | 30502 ft | 416 kts | 17° |
| 2026-05-05 09:30 | 8.15666 | 38.63887 | 30276 ft | 415 kts | 17° |
| 2026-05-05 09:30 | 8.18416 | 38.64732 | 30038 ft | 413 kts | 18° |
| 2026-05-05 09:30 | 8.21157 | 38.65576 | 29766 ft | 411 kts | 18° |
| 2026-05-05 09:30 | 8.23883 | 38.66414 | 29507 ft | 408 kts | 17° |
| 2026-05-05 09:31 | 8.26598 | 38.67248 | 29245 ft | 407 kts | 18° |
| 2026-05-05 09:31 | 8.29303 | 38.68083 | 28986 ft | 406 kts | 17° |
| 2026-05-05 09:31 | 8.31996 | 38.68916 | 28730 ft | 404 kts | 17° |
| 2026-05-05 09:31 | 8.34682 | 38.69744 | 28474 ft | 402 kts | 17° |
| 2026-05-05 09:32 | 8.37356 | 38.70564 | 28223 ft | 401 kts | 17° |
| 2026-05-05 09:32 | 8.40020 | 38.71381 | 27974 ft | 399 kts | 17° |
| 2026-05-05 09:32 | 8.42678 | 38.72197 | 27726 ft | 398 kts | 17° |
| 2026-05-05 09:32 | 8.45321 | 38.73011 | 27475 ft | 396 kts | 17° |
| 2026-05-05 09:33 | 8.47953 | 38.73824 | 27236 ft | 395 kts | 17° |
| 2026-05-05 09:33 | 8.50573 | 38.74632 | 26996 ft | 393 kts | 17° |
| 2026-05-05 09:33 | 8.53186 | 38.75439 | 26756 ft | 392 kts | 18° |
| 2026-05-05 09:33 | 8.55785 | 38.76244 | 26515 ft | 390 kts | 17° |
| 2026-05-05 09:34 | 8.58377 | 38.77044 | 26275 ft | 389 kts | 17° |
| 2026-05-05 09:34 | 8.60965 | 38.77841 | 26045 ft | 388 kts | 17° |
| 2026-05-05 09:34 | 8.63536 | 38.78632 | 25814 ft | 386 kts | 17° |
| 2026-05-05 09:34 | 8.66108 | 38.79423 | 25579 ft | 385 kts | 17° |
| 2026-05-05 09:35 | 8.68664 | 38.80212 | 25358 ft | 384 kts | 17° |
| 2026-05-05 09:35 | 8.73752 | 38.81786 | 24918 ft | 381 kts | 17° |
| 2026-05-05 09:35 | 8.76251 | 38.82560 | 24694 ft | 380 kts | 18° |
| 2026-05-05 09:36 | 8.78794 | 38.83349 | 24369 ft | 375 kts | 18° |
| 2026-05-05 09:36 | 8.81254 | 38.84108 | 23920 ft | 375 kts | 18° |
| 2026-05-05 09:36 | 8.83753 | 38.84879 | 23392 ft | 375 kts | 18° |
| 2026-05-05 09:36 | 8.86245 | 38.85660 | 22899 ft | 374 kts | 21° |
| 2026-05-05 09:37 | 8.88550 | 38.86824 | 22416 ft | 370 kts | 36° |
| 2026-05-05 09:37 | 8.90475 | 38.88531 | 21969 ft | 367 kts | 50° |
| 2026-05-05 09:37 | 8.91898 | 38.90657 | 21479 ft | 365 kts | 64° |
| 2026-05-05 09:37 | 8.92767 | 38.93061 | 20999 ft | 363 kts | 74° |
| 2026-05-05 09:38 | 8.93263 | 38.95553 | 20522 ft | 363 kts | 85° |
| 2026-05-05 09:38 | 8.93294 | 38.98100 | 20077 ft | 361 kts | 90° |
| 2026-05-05 09:38 | 8.93255 | 39.00634 | 19628 ft | 360 kts | 90° |
| 2026-05-05 09:38 | 8.93221 | 39.03163 | 19185 ft | 359 kts | 90° |
| 2026-05-05 09:39 | 8.93189 | 39.05678 | 18772 ft | 356 kts | 90° |
| 2026-05-05 09:39 | 8.93158 | 39.08177 | 18351 ft | 354 kts | 90° |
| 2026-05-05 09:39 | 8.93126 | 39.10655 | 17897 ft | 352 kts | 90° |
| 2026-05-05 09:39 | 8.93093 | 39.13120 | 17446 ft | 349 kts | 89° |
| 2026-05-05 09:40 | 8.93060 | 39.15566 | 17075 ft | 346 kts | 89° |
| 2026-05-05 09:40 | 8.93324 | 39.17950 | 16661 ft | 341 kts | 70° |
| 2026-05-05 09:40 | 8.94556 | 39.19963 | 16249 ft | 339 kts | 44° |
| 2026-05-05 09:40 | 8.96566 | 39.21168 | 15860 ft | 340 kts | 18° |
| 2026-05-05 09:41 | 8.98919 | 39.21435 | 15444 ft | 343 kts | 4° |
| 2026-05-05 09:41 | 9.01279 | 39.21086 | 15074 ft | 346 kts | 342° |
| 2026-05-05 09:41 | 9.03336 | 39.19797 | 14493 ft | 358 kts | 318° |
| 2026-05-05 09:41 | 9.04678 | 39.17647 | 14069 ft | 367 kts | 291° |
| 2026-05-05 09:42 | 9.05359 | 39.15191 | 13921 ft | 358 kts | 287° |
| 2026-05-05 09:42 | 9.05981 | 39.12783 | 13740 ft | 349 kts | 287° |
| 2026-05-05 09:42 | 9.06364 | 39.10385 | 13582 ft | 343 kts | 269° |
| 2026-05-05 09:42 | 9.05969 | 39.08008 | 13120 ft | 346 kts | 257° |
| 2026-05-05 09:43 | 9.05359 | 39.05649 | 12636 ft | 347 kts | 255° |
| 2026-05-05 09:43 | 9.04711 | 39.03322 | 12183 ft | 348 kts | 255° |
| 2026-05-05 09:43 | 9.04039 | 39.00969 | 11719 ft | 349 kts | 254° |
| 2026-05-05 09:43 | 9.03366 | 38.98604 | 11244 ft | 350 kts | 254° |
| 2026-05-05 09:44 | 9.02681 | 38.96243 | 10787 ft | 351 kts | 253° |
| 2026-05-05 09:44 | 9.01982 | 38.93875 | 10315 ft | 352 kts | 253° |
| 2026-05-05 09:44 | 9.01280 | 38.91502 | 9822 ft | 352 kts | 253° |
| 2026-05-05 09:44 | 9.00582 | 38.89128 | 9335 ft | 352 kts | 253° |
| 2026-05-05 09:45 | 8.99894 | 38.86787 | 9095 ft | 343 kts | 253° |
| 2026-05-05 09:45 | 8.99231 | 38.84521 | 9088 ft | 327 kts | 253° |
| 2026-05-05 09:45 | 8.98602 | 38.82367 | 9095 ft | 312 kts | 253° |
| 2026-05-05 09:45 | 8.98000 | 38.80312 | 9080 ft | 295 kts | 253° |
| 2026-05-05 09:46 | 8.97437 | 38.78389 | 9087 ft | 276 kts | 254° |
| 2026-05-05 09:46 | 8.96909 | 38.76581 | 9094 ft | 262 kts | 254° |
| 2026-05-05 09:46 | 8.96395 | 38.74815 | 9088 ft | 265 kts | 253° |
| 2026-05-05 09:46 | 8.95875 | 38.73020 | 9077 ft | 261 kts | 253° |
| 2026-05-05 09:47 | 8.95177 | 38.71314 | 9082 ft | 265 kts | 241° |
| 2026-05-05 09:47 | 8.94325 | 38.69664 | 9078 ft | 265 kts | 241° |
| 2026-05-05 09:47 | 8.93456 | 38.68015 | 9079 ft | 267 kts | 241° |
| 2026-05-05 09:47 | 8.92595 | 38.66390 | 9071 ft | 262 kts | 240° |
| 2026-05-05 09:48 | 8.91575 | 38.64863 | 9064 ft | 256 kts | 219° |
| 2026-05-05 09:48 | 8.90108 | 38.63992 | 9047 ft | 236 kts | 190° |
| 2026-05-05 09:48 | 8.88573 | 38.63972 | 9073 ft | 222 kts | 159° |
| 2026-05-05 09:48 | 8.87316 | 38.64795 | 9064 ft | 213 kts | 125° |
| 2026-05-05 09:49 | 8.86815 | 38.66084 | 9072 ft | 191 kts | 90° |
| 2026-05-05 09:49 | 8.86906 | 38.67368 | 9052 ft | 177 kts | 85° |
| 2026-05-05 09:49 | 8.86941 | 38.68572 | 9055 ft | 166 kts | 87° |
| 2026-05-05 09:49 | 8.87071 | 38.69688 | 9039 ft | 154 kts | 75° |
| 2026-05-05 09:50 | 8.87399 | 38.70699 | 9080 ft | 149 kts | 73° |
| 2026-05-05 09:50 | 8.87774 | 38.71704 | 9083 ft | 165 kts | 70° |
| 2026-05-05 09:50 | 8.88231 | 38.72864 | 9080 ft | 186 kts | 70° |
| 2026-05-05 09:50 | 8.88684 | 38.74076 | 9059 ft | 185 kts | 71° |
| 2026-05-05 09:51 | 8.89144 | 38.75288 | 9053 ft | 185 kts | 70° |
| 2026-05-05 09:51 | 8.89604 | 38.76507 | 9050 ft | 185 kts | 69° |
| 2026-05-05 09:51 | 8.90064 | 38.77725 | 9056 ft | 185 kts | 70° |
| 2026-05-05 09:51 | 8.90515 | 38.78952 | 9051 ft | 189 kts | 70° |
| 2026-05-05 09:52 | 8.90977 | 38.80183 | 9057 ft | 184 kts | 70° |
| 2026-05-05 09:52 | 8.91432 | 38.81412 | 9053 ft | 189 kts | 69° |
| 2026-05-05 09:52 | 8.91880 | 38.82642 | 9050 ft | 186 kts | 69° |
| 2026-05-05 09:52 | 8.92313 | 38.83864 | 9039 ft | 183 kts | 72° |
| 2026-05-05 09:53 | 8.92757 | 38.85088 | 9052 ft | 187 kts | 69° |
| 2026-05-05 09:53 | 8.93399 | 38.86213 | 9053 ft | 186 kts | 46° |
| 2026-05-05 09:53 | 8.94560 | 38.86686 | 9033 ft | 179 kts | 3° |
| 2026-05-05 09:53 | 8.95762 | 38.86411 | 8816 ft | 178 kts | 343° |
| 2026-05-05 09:54 | 8.96888 | 38.85957 | 8522 ft | 174 kts | 341° |
| 2026-05-05 09:54 | 8.97947 | 38.85421 | 8305 ft | 169 kts | 323° |
| 2026-05-05 09:54 | 8.98548 | 38.84409 | 8122 ft | 174 kts | 283° |
| 2026-05-05 09:54 | 8.98699 | 38.83169 | 8018 ft | 176 kts | 267° |
| 2026-05-05 09:55 | 8.98496 | 38.81969 | 7762 ft | 171 kts | 253° |
| 2026-05-05 09:55 | 8.98146 | 38.80831 | 7606 ft | 161 kts | 255° |
| 2026-05-05 09:55 | 8.97907 | 38.79999 | 7613 ft | 59 kts | 254° |
| 2026-05-05 09:55 | 8.97947 | 38.79807 | 7613 ft | 26 kts | 346° |
| 2026-05-05 09:56 | 8.98121 | 38.79758 | 7611 ft | 26 kts | 351° |
| 2026-05-05 09:56 | 8.98246 | 38.79786 | 7610 ft | 14 kts | 343° |
| 2026-05-05 09:56 | 8.98283 | 38.79775 | 7610 ft | 0 kts | 343° |